Houghton, Michigan
Current Conditions -  °F | °C
As of 6:53 AM on Sunday 25 Jan 2015 (Local Time) from KCMX Reporting Station
Light Snow Light Snow  
Wind Chill: -16°   Ceiling: 2000
Heat Index: -11°   Visibility: 9mi
Dew Point: -16°   Wind: 7mph
Humidity: 67%   Direction: 80°E
Pressure: 29.98"   Gusts: NA
Location:  47.12°N, 88.57°W
Report Text: KCMX 251153Z AUTO 08006KT 9SM -SN OVC020 M11/M16 A2998 RMK AO2 SNB16 SLP174 P0000 60000 T11061156 11094 21106 53019
Loading
Personal Weather Stations






























Interactive Weather Map New forecast layout! Learn more

10-Day Weather Forecast

Advertisements
Track Severe Weather on mobile